sensor_id;sensor_type;location;lat;lon;timestamp;pressure;altitude;pressure_sealevel;temperature;humidity
28935;BME280;16044;52.726;-2.108;2023-03-23T00:01:20;98233.09;;;7.97;96.98
28935;BME280;16044;52.726;-2.108;2023-03-23T00:03:50;98234.16;;;7.96;97.04
28935;BME280;16044;52.726;-2.108;2023-03-23T00:06:19;98232.94;;;7.92;96.97
28935;BME280;16044;52.726;-2.108;2023-03-23T00:08:49;98244.56;;;7.86;96.36
28935;BME280;16044;52.726;-2.108;2023-03-23T00:11:26;98247.72;;;7.83;95.60
28935;BME280;16044;52.726;-2.108;2023-03-23T00:13:57;98260.19;;;7.77;95.41
28935;BME280;16044;52.726;-2.108;2023-03-23T00:16:32;98258.97;;;7.67;95.05
28935;BME280;16044;52.726;-2.108;2023-03-23T00:19:07;98255.28;;;7.54;95.74
28935;BME280;16044;52.726;-2.108;2023-03-23T00:21:37;98258.59;;;7.56;95.51
28935;BME280;16044;52.726;-2.108;2023-03-23T00:24:15;98243.03;;;7.52;95.73
28935;BME280;16044;52.726;-2.108;2023-03-23T00:26:48;98249.06;;;7.47;95.90
28935;BME280;16044;52.726;-2.108;2023-03-23T00:29:21;98264.44;;;7.40;95.87
28935;BME280;16044;52.726;-2.108;2023-03-23T00:31:49;98262.78;;;7.32;96.69
28935;BME280;16044;52.726;-2.108;2023-03-23T00:34:20;98256.78;;;7.30;96.49
28935;BME280;16044;52.726;-2.108;2023-03-23T00:36:53;98276.06;;;7.27;96.34
28935;BME280;16044;52.726;-2.108;2023-03-23T00:39:24;98288.94;;;7.18;96.86
28935;BME280;16044;52.726;-2.108;2023-03-23T00:41:54;98277.53;;;7.16;96.79
28935;BME280;16044;52.726;-2.108;2023-03-23T00:44:28;98282.50;;;7.19;96.51
28935;BME280;16044;52.726;-2.108;2023-03-23T00:46:57;98284.38;;;7.12;97.08
28935;BME280;16044;52.726;-2.108;2023-03-23T00:49:25;98291.00;;;7.03;97.60
28935;BME280;16044;52.726;-2.108;2023-03-23T00:51:55;98286.25;;;6.98;98.29
28935;BME280;16044;52.726;-2.108;2023-03-23T00:54:25;98288.53;;;6.95;98.10
28935;BME280;16044;52.726;-2.108;2023-03-23T00:56:53;98300.13;;;6.89;98.50
28935;BME280;16044;52.726;-2.108;2023-03-23T00:59:21;98298.47;;;6.88;98.87
28935;BME280;16044;52.726;-2.108;2023-03-23T01:01:49;98301.78;;;6.83;98.85
28935;BME280;16044;52.726;-2.108;2023-03-23T01:04:17;98307.19;;;6.83;98.86
28935;BME280;16044;52.726;-2.108;2023-03-23T01:06:44;98311.72;;;6.76;99.38
28935;BME280;16044;52.726;-2.108;2023-03-23T01:09:18;98317.53;;;6.79;99.45
28935;BME280;16044;52.726;-2.108;2023-03-23T01:11:49;98323.94;;;6.78;99.55
28935;BME280;16044;52.726;-2.108;2023-03-23T01:14:19;98320.63;;;6.76;99.29
28935;BME280;16044;52.726;-2.108;2023-03-23T01:16:46;98322.50;;;6.76;99.25
28935;BME280;16044;52.726;-2.108;2023-03-23T01:19:13;98333.47;;;6.74;99.37
28935;BME280;16044;52.726;-2.108;2023-03-23T01:21:42;98337.00;;;6.75;99.37
28935;BME280;16044;52.726;-2.108;2023-03-23T01:24:09;98330.56;;;6.69;99.83
28935;BME280;16044;52.726;-2.108;2023-03-23T01:26:36;98334.91;;;6.70;100.00
28935;BME280;16044;52.726;-2.108;2023-03-23T01:29:03;98349.19;;;6.71;100.00
28935;BME280;16044;52.726;-2.108;2023-03-23T01:31:30;98355.00;;;6.74;100.00
28935;BME280;16044;52.726;-2.108;2023-03-23T01:33:58;98352.31;;;6.74;99.99
28935;BME280;16044;52.726;-2.108;2023-03-23T01:36:27;98362.44;;;6.72;99.92
28935;BME280;16044;52.726;-2.108;2023-03-23T01:39:00;98369.72;;;6.72;100.00
28935;BME280;16044;52.726;-2.108;2023-03-23T01:41:32;98359.97;;;6.64;100.00
28935;BME280;16044;52.726;-2.108;2023-03-23T01:46:43;98360.56;;;6.59;100.00
28935;BME280;16044;52.726;-2.108;2023-03-23T01:49:19;98345.44;;;6.58;100.00
28935;BME280;16044;52.726;-2.108;2023-03-23T01:51:54;98347.31;;;6.58;100.00
28935;BME280;16044;52.726;-2.108;2023-03-23T01:54:24;98347.72;;;6.55;100.00
28935;BME280;16044;52.726;-2.108;2023-03-23T01:56:54;98343.34;;;6.54;100.00
28935;BME280;16044;52.726;-2.108;2023-03-23T01:59:45;98344.63;;;6.58;100.00
28935;BME280;16044;52.726;-2.108;2023-03-23T02:02:16;98353.09;;;6.55;100.00
28935;BME280;16044;52.726;-2.108;2023-03-23T02:04:43;98358.28;;;6.56;100.00
28935;BME280;16044;52.726;-2.108;2023-03-23T02:07:12;98348.53;;;6.55;100.00
28935;BME280;16044;52.726;-2.108;2023-03-23T02:09:42;98360.13;;;6.56;100.00
28935;BME280;16044;52.726;-2.108;2023-03-23T02:12:09;98358.88;;;6.52;100.00
28935;BME280;16044;52.726;-2.108;2023-03-23T02:14:36;98353.50;;;6.52;100.00
28935;BME280;16044;52.726;-2.108;2023-03-23T02:17:26;98362.63;;;6.51;100.00
28935;BME280;16044;52.726;-2.108;2023-03-23T02:27:04;98369.22;;;6.41;100.00
28935;BME280;16044;52.726;-2.108;2023-03-23T02:29:51;98365.91;;;6.39;99.90
28935;BME280;16044;52.726;-2.108;2023-03-23T02:35:20;98378.91;;;6.36;99.61
28935;BME280;16044;52.726;-2.108;2023-03-23T02:37:55;98385.31;;;6.35;99.83
28935;BME280;16044;52.726;-2.108;2023-03-23T02:40:49;98384.69;;;6.33;99.63
28935;BME280;16044;52.726;-2.108;2023-03-23T02:43:21;98387.81;;;6.30;99.82
28935;BME280;16044;52.726;-2.108;2023-03-23T02:46:01;98393.78;;;6.25;100.00
28935;BME280;16044;52.726;-2.108;2023-03-23T02:48:34;98390.66;;;6.21;100.00
28935;BME280;16044;52.726;-2.108;2023-03-23T02:51:03;98394.59;;;6.25;100.00
28935;BME280;16044;52.726;-2.108;2023-03-23T02:53:33;98398.53;;;6.23;100.00
28935;BME280;16044;52.726;-2.108;2023-03-23T02:56:02;98388.81;;;6.22;100.00
28935;BME280;16044;52.726;-2.108;2023-03-23T02:58:32;98389.00;;;6.20;100.00
28935;BME280;16044;52.726;-2.108;2023-03-23T03:01:14;98384.88;;;6.24;100.00
28935;BME280;16044;52.726;-2.108;2023-03-23T03:04:10;98397.09;;;6.27;100.00
28935;BME280;16044;52.726;-2.108;2023-03-23T03:12:54;98396.69;;;6.30;100.00
28935;BME280;16044;52.726;-2.108;2023-03-23T03:18:19;98396.94;;;6.42;100.00
28935;BME280;16044;52.726;-2.108;2023-03-23T03:20:59;98388.91;;;6.49;100.00
28935;BME280;16044;52.726;-2.108;2023-03-23T03:23:31;98379.63;;;6.58;100.00
28935;BME280;16044;52.726;-2.108;2023-03-23T03:26:00;98394.97;;;6.64;100.00
28935;BME280;16044;52.726;-2.108;2023-03-23T03:28:32;98386.25;;;6.62;100.00
28935;BME280;16044;52.726;-2.108;2023-03-23T03:31:01;98391.41;;;6.57;100.00
28935;BME280;16044;52.726;-2.108;2023-03-23T03:33:30;98392.84;;;6.53;100.00
28935;BME280;16044;52.726;-2.108;2023-03-23T03:36:03;98381.03;;;6.54;100.00
28935;BME280;16044;52.726;-2.108;2023-03-23T03:38:43;98393.66;;;6.47;100.00
28935;BME280;16044;52.726;-2.108;2023-03-23T03:41:11;98389.09;;;6.47;100.00
28935;BME280;16044;52.726;-2.108;2023-03-23T03:43:38;98387.44;;;6.39;100.00
28935;BME280;16044;52.726;-2.108;2023-03-23T03:46:05;98382.03;;;6.39;100.00
28935;BME280;16044;52.726;-2.108;2023-03-23T03:48:33;98384.31;;;6.36;100.00
28935;BME280;16044;52.726;-2.108;2023-03-23T03:51:00;98377.03;;;6.30;100.00
28935;BME280;16044;52.726;-2.108;2023-03-23T03:53:29;98382.56;;;6.15;100.00
28935;BME280;16044;52.726;-2.108;2023-03-23T03:55:57;98385.47;;;6.20;100.00
28935;BME280;16044;52.726;-2.108;2023-03-23T03:58:26;98384.84;;;6.18;100.00
28935;BME280;16044;52.726;-2.108;2023-03-23T04:00:59;98381.72;;;6.14;100.00
28935;BME280;16044;52.726;-2.108;2023-03-23T04:03:27;98390.44;;;6.16;100.00
28935;BME280;16044;52.726;-2.108;2023-03-23T04:05:54;98381.31;;;6.11;100.00
28935;BME280;16044;52.726;-2.108;2023-03-23T04:08:24;98382.31;;;6.10;100.00
28935;BME280;16044;52.726;-2.108;2023-03-23T04:10:53;98393.91;;;6.10;100.00
28935;BME280;16044;52.726;-2.108;2023-03-23T04:13:22;98381.06;;;6.05;100.00
28935;BME280;16044;52.726;-2.108;2023-03-23T04:15:49;98388.72;;;6.09;100.00
28935;BME280;16044;52.726;-2.108;2023-03-23T04:18:36;98389.34;;;6.04;100.00
28935;BME280;16044;52.726;-2.108;2023-03-23T04:21:05;98393.69;;;6.05;100.00
28935;BME280;16044;52.726;-2.108;2023-03-23T04:23:35;98388.91;;;6.00;100.00
28935;BME280;16044;52.726;-2.108;2023-03-23T04:26:03;98395.31;;;5.99;100.00
28935;BME280;16044;52.726;-2.108;2023-03-23T04:28:31;98396.34;;;5.98;100.00
28935;BME280;16044;52.726;-2.108;2023-03-23T04:31:00;98404.78;;;5.95;100.00
28935;BME280;16044;52.726;-2.108;2023-03-23T04:33:31;98404.13;;;5.93;100.00
28935;BME280;16044;52.726;-2.108;2023-03-23T04:36:18;98398.41;;;5.96;100.00
28935;BME280;16044;52.726;-2.108;2023-03-23T04:38:45;98389.66;;;5.94;100.00
28935;BME280;16044;52.726;-2.108;2023-03-23T04:41:12;98394.88;;;5.96;100.00
28935;BME280;16044;52.726;-2.108;2023-03-23T04:43:39;98393.59;;;5.92;100.00
28935;BME280;16044;52.726;-2.108;2023-03-23T04:46:08;98396.28;;;5.92;100.00
28935;BME280;16044;52.726;-2.108;2023-03-23T04:48:36;98393.78;;;5.90;100.00
28935;BME280;16044;52.726;-2.108;2023-03-23T04:51:05;98395.84;;;5.88;100.00
28935;BME280;16044;52.726;-2.108;2023-03-23T04:53:32;98392.09;;;5.89;100.00
28935;BME280;16044;52.726;-2.108;2023-03-23T04:55:59;98398.31;;;5.90;100.00
28935;BME280;16044;52.726;-2.108;2023-03-23T04:58:30;98389.84;;;5.86;100.00
28935;BME280;16044;52.726;-2.108;2023-03-23T05:01:00;98404.94;;;5.87;100.00
28935;BME280;16044;52.726;-2.108;2023-03-23T05:03:34;98394.56;;;5.84;100.00
28935;BME280;16044;52.726;-2.108;2023-03-23T05:06:02;98392.03;;;5.76;100.00
28935;BME280;16044;52.726;-2.108;2023-03-23T05:08:30;98385.84;;;5.82;100.00
28935;BME280;16044;52.726;-2.108;2023-03-23T05:10:59;98392.47;;;5.79;100.00
28935;BME280;16044;52.726;-2.108;2023-03-23T05:13:28;98395.09;;;5.73;100.00
28935;BME280;16044;52.726;-2.108;2023-03-23T05:15:55;98386.03;;;5.74;100.00
28935;BME280;16044;52.726;-2.108;2023-03-23T05:18:22;98391.41;;;5.74;100.00
28935;BME280;16044;52.726;-2.108;2023-03-23T05:20:49;98394.09;;;5.74;100.00
28935;BME280;16044;52.726;-2.108;2023-03-23T05:23:19;98380.03;;;5.72;100.00
28935;BME280;16044;52.726;-2.108;2023-03-23T05:25:55;98389.09;;;5.71;100.00
28935;BME280;16044;52.726;-2.108;2023-03-23T05:28:22;98376.91;;;5.68;100.00
28935;BME280;16044;52.726;-2.108;2023-03-23T05:30:49;98371.72;;;5.66;100.00
28935;BME280;16044;52.726;-2.108;2023-03-23T05:33:16;98381.25;;;5.69;100.00
28935;BME280;16044;52.726;-2.108;2023-03-23T05:35:45;98365.94;;;5.70;100.00
28935;BME280;16044;52.726;-2.108;2023-03-23T05:38:15;98369.03;;;5.66;100.00
28935;BME280;16044;52.726;-2.108;2023-03-23T05:40:42;98360.13;;;5.66;100.00
28935;BME280;16044;52.726;-2.108;2023-03-23T05:43:10;98363.66;;;5.66;100.00
28935;BME280;16044;52.726;-2.108;2023-03-23T05:45:37;98357.41;;;5.59;100.00
28935;BME280;16044;52.726;-2.108;2023-03-23T05:48:05;98365.69;;;5.64;100.00
28935;BME280;16044;52.726;-2.108;2023-03-23T05:50:32;98350.41;;;5.65;100.00
28935;BME280;16044;52.726;-2.108;2023-03-23T05:52:59;98344.84;;;5.66;100.00
28935;BME280;16044;52.726;-2.108;2023-03-23T05:55:27;98346.09;;;5.71;100.00
28935;BME280;16044;52.726;-2.108;2023-03-23T05:57:54;98335.75;;;5.68;100.00
28935;BME280;16044;52.726;-2.108;2023-03-23T06:00:21;98335.34;;;5.71;100.00
28935;BME280;16044;52.726;-2.108;2023-03-23T06:02:54;98342.59;;;5.70;100.00
28935;BME280;16044;52.726;-2.108;2023-03-23T06:05:23;98338.28;;;5.76;100.00
28935;BME280;16044;52.726;-2.108;2023-03-23T06:07:52;98345.72;;;5.74;100.00
28935;BME280;16044;52.726;-2.108;2023-03-23T06:10:20;98344.91;;;5.80;100.00
28935;BME280;16044;52.726;-2.108;2023-03-23T06:12:49;98340.38;;;5.80;100.00
28935;BME280;16044;52.726;-2.108;2023-03-23T06:15:18;98347.84;;;5.85;100.00
28935;BME280;16044;52.726;-2.108;2023-03-23T06:17:45;98357.34;;;5.88;100.00
28935;BME280;16044;52.726;-2.108;2023-03-23T06:20:12;98352.41;;;5.91;100.00
28935;BME280;16044;52.726;-2.108;2023-03-23T06:22:39;98362.63;;;6.02;100.00
28935;BME280;16044;52.726;-2.108;2023-03-23T06:25:08;98354.38;;;6.04;100.00
28935;BME280;16044;52.726;-2.108;2023-03-23T06:27:36;98362.69;;;6.16;100.00
28935;BME280;16044;52.726;-2.108;2023-03-23T06:30:04;98350.72;;;6.25;100.00
28935;BME280;16044;52.726;-2.108;2023-03-23T06:32:32;98356.72;;;6.27;100.00
28935;BME280;16044;52.726;-2.108;2023-03-23T06:34:59;98353.84;;;6.29;100.00
28935;BME280;16044;52.726;-2.108;2023-03-23T06:37:27;98341.03;;;6.31;100.00
28935;BME280;16044;52.726;-2.108;2023-03-23T06:39:54;98335.63;;;6.31;100.00
28935;BME280;16044;52.726;-2.108;2023-03-23T06:42:22;98336.69;;;6.36;100.00
28935;BME280;16044;52.726;-2.108;2023-03-23T06:44:51;98340.44;;;6.35;100.00
28935;BME280;16044;52.726;-2.108;2023-03-23T06:47:19;98338.13;;;6.39;100.00
28935;BME280;16044;52.726;-2.108;2023-03-23T06:49:46;98337.94;;;6.40;100.00
28935;BME280;16044;52.726;-2.108;2023-03-23T06:52:13;98336.50;;;6.44;100.00
28935;BME280;16044;52.726;-2.108;2023-03-23T06:54:39;98333.44;;;6.54;100.00
28935;BME280;16044;52.726;-2.108;2023-03-23T06:57:07;98334.50;;;6.60;100.00
28935;BME280;16044;52.726;-2.108;2023-03-23T06:59:34;98335.31;;;6.67;100.00
28935;BME280;16044;52.726;-2.108;2023-03-23T07:02:01;98321.66;;;6.75;100.00
28935;BME280;16044;52.726;-2.108;2023-03-23T07:04:29;98332.63;;;6.80;100.00
28935;BME280;16044;52.726;-2.108;2023-03-23T07:06:55;98334.09;;;6.90;100.00
28935;BME280;16044;52.726;-2.108;2023-03-23T07:09:23;98325.22;;;6.96;100.00
28935;BME280;16044;52.726;-2.108;2023-03-23T07:12:08;98332.06;;;7.05;100.00
28935;BME280;16044;52.726;-2.108;2023-03-23T07:14:36;98336.16;;;7.14;100.00
28935;BME280;16044;52.726;-2.108;2023-03-23T07:17:03;98341.16;;;7.17;100.00
28935;BME280;16044;52.726;-2.108;2023-03-23T07:19:31;98339.09;;;7.19;100.00
28935;BME280;16044;52.726;-2.108;2023-03-23T07:21:58;98338.69;;;7.22;100.00
28935;BME280;16044;52.726;-2.108;2023-03-23T07:24:25;98318.34;;;7.27;100.00
28935;BME280;16044;52.726;-2.108;2023-03-23T07:26:52;98312.75;;;7.35;100.00
28935;BME280;16044;52.726;-2.108;2023-03-23T07:29:19;98323.72;;;7.40;100.00
28935;BME280;16044;52.726;-2.108;2023-03-23T07:31:46;98324.56;;;7.34;100.00
28935;BME280;16044;52.726;-2.108;2023-03-23T07:34:13;98316.25;;;7.42;100.00
28935;BME280;16044;52.726;-2.108;2023-03-23T07:36:41;98315.81;;;7.58;100.00
28935;BME280;16044;52.726;-2.108;2023-03-23T07:39:08;98312.03;;;7.79;100.00
28935;BME280;16044;52.726;-2.108;2023-03-23T07:41:35;98318.84;;;7.89;100.00
28935;BME280;16044;52.726;-2.108;2023-03-23T07:44:02;98320.63;;;8.15;99.63
28935;BME280;16044;52.726;-2.108;2023-03-23T07:46:29;98322.38;;;8.34;98.45
28935;BME280;16044;52.726;-2.108;2023-03-23T07:48:57;98324.84;;;8.49;97.08
28935;BME280;16044;52.726;-2.108;2023-03-23T07:51:24;98319.47;;;8.74;96.05
28935;BME280;16044;52.726;-2.108;2023-03-23T07:53:51;98324.38;;;8.91;95.16
28935;BME280;16044;52.726;-2.108;2023-03-23T07:56:18;98335.56;;;9.20;94.03
28935;BME280;16044;52.726;-2.108;2023-03-23T07:58:46;98326.13;;;9.29;93.05
28935;BME280;16044;52.726;-2.108;2023-03-23T08:01:14;98342.91;;;9.38;92.44
28935;BME280;16044;52.726;-2.108;2023-03-23T08:03:41;98330.00;;;9.58;91.39
28935;BME280;16044;52.726;-2.108;2023-03-23T08:06:08;98333.25;;;9.67;90.55
28935;BME280;16044;52.726;-2.108;2023-03-23T08:08:36;98339.66;;;9.91;89.51
28935;BME280;16044;52.726;-2.108;2023-03-23T08:11:03;98328.31;;;9.82;88.74
28935;BME280;16044;52.726;-2.108;2023-03-23T08:13:32;98336.88;;;9.79;88.54
28935;BME280;16044;52.726;-2.108;2023-03-23T08:16:03;98331.91;;;9.76;88.44
28935;BME280;16044;52.726;-2.108;2023-03-23T08:18:31;98337.63;;;9.86;89.12
28935;BME280;16044;52.726;-2.108;2023-03-23T08:20:58;98339.44;;;9.74;89.48
28935;BME280;16044;52.726;-2.108;2023-03-23T08:23:26;98352.41;;;9.65;89.56
28935;BME280;16044;52.726;-2.108;2023-03-23T08:25:53;98342.06;;;9.62;89.63
28935;BME280;16044;52.726;-2.108;2023-03-23T08:28:20;98351.25;;;9.54;90.37
28935;BME280;16044;52.726;-2.108;2023-03-23T08:30:47;98351.34;;;9.48;90.42
28935;BME280;16044;52.726;-2.108;2023-03-23T08:33:15;98360.72;;;9.45;90.64
28935;BME280;16044;52.726;-2.108;2023-03-23T08:35:42;98364.75;;;9.36;91.07
28935;BME280;16044;52.726;-2.108;2023-03-23T08:38:11;98373.59;;;9.25;91.86
28935;BME280;16044;52.726;-2.108;2023-03-23T08:40:38;98376.72;;;9.22;92.54
28935;BME280;16044;52.726;-2.108;2023-03-23T08:43:05;98384.66;;;9.16;93.44
28935;BME280;16044;52.726;-2.108;2023-03-23T08:45:32;98376.13;;;9.20;93.68
28935;BME280;16044;52.726;-2.108;2023-03-23T08:47:59;98378.38;;;9.23;93.46
28935;BME280;16044;52.726;-2.108;2023-03-23T08:50:29;98372.31;;;9.27;93.43
28935;BME280;16044;52.726;-2.108;2023-03-23T08:52:57;98357.84;;;9.40;93.58
28935;BME280;16044;52.726;-2.108;2023-03-23T08:55:25;98365.84;;;9.53;93.85
28935;BME280;16044;52.726;-2.108;2023-03-23T08:57:53;98364.44;;;9.69;93.52
28935;BME280;16044;52.726;-2.108;2023-03-23T09:00:22;98361.97;;;9.86;93.12
28935;BME280;16044;52.726;-2.108;2023-03-23T09:02:54;98368.69;;;10.02;92.79
28935;BME280;16044;52.726;-2.108;2023-03-23T09:05:25;98349.38;;;10.17;92.17
28935;BME280;16044;52.726;-2.108;2023-03-23T09:07:55;98363.38;;;10.32;91.50
28935;BME280;16044;52.726;-2.108;2023-03-23T09:10:27;98353.13;;;10.34;89.75
28935;BME280;16044;52.726;-2.108;2023-03-23T09:12:55;98353.50;;;10.38;89.35
28935;BME280;16044;52.726;-2.108;2023-03-23T09:15:22;98354.34;;;10.39;90.18
28935;BME280;16044;52.726;-2.108;2023-03-23T09:17:59;98353.63;;;10.43;90.77
28935;BME280;16044;52.726;-2.108;2023-03-23T09:20:30;98363.09;;;10.52;90.61
28935;BME280;16044;52.726;-2.108;2023-03-23T09:22:57;98364.59;;;10.67;88.80
28935;BME280;16044;52.726;-2.108;2023-03-23T09:25:26;98355.69;;;10.78;87.27
28935;BME280;16044;52.726;-2.108;2023-03-23T09:27:56;98371.53;;;10.93;86.75
28935;BME280;16044;52.726;-2.108;2023-03-23T09:30:30;98360.63;;;11.11;86.49
28935;BME280;16044;52.726;-2.108;2023-03-23T09:33:05;98359.31;;;11.26;85.82
28935;BME280;16044;52.726;-2.108;2023-03-23T09:35:35;98363.34;;;11.35;84.57
28935;BME280;16044;52.726;-2.108;2023-03-23T09:38:05;98358.78;;;11.47;83.40
28935;BME280;16044;52.726;-2.108;2023-03-23T09:40:49;98354.53;;;11.51;81.97
28935;BME280;16044;52.726;-2.108;2023-03-23T09:48:51;98374.09;;;11.54;80.53
28935;BME280;16044;52.726;-2.108;2023-03-23T09:52:17;98368.19;;;11.57;79.58
28935;BME280;16044;52.726;-2.108;2023-03-23T09:54:29;98372.56;;;11.58;80.09
28935;BME280;16044;52.726;-2.108;2023-03-23T09:56:59;98375.66;;;11.61;80.05
28935;BME280;16044;52.726;-2.108;2023-03-23T09:59:35;98382.72;;;11.50;79.13
28935;BME280;16044;52.726;-2.108;2023-03-23T10:02:21;98380.47;;;11.59;79.42
28935;BME280;16044;52.726;-2.108;2023-03-23T10:04:56;98388.84;;;11.58;78.87
28935;BME280;16044;52.726;-2.108;2023-03-23T10:07:33;98384.00;;;11.60;79.74
28935;BME280;16044;52.726;-2.108;2023-03-23T10:10:01;98400.66;;;11.63;80.41
28935;BME280;16044;52.726;-2.108;2023-03-23T10:15:28;98412.09;;;11.54;80.90
28935;BME280;16044;52.726;-2.108;2023-03-23T10:18:04;98413.84;;;11.48;84.48
28935;BME280;16044;52.726;-2.108;2023-03-23T10:26:14;98407.13;;;11.50;86.86
28935;BME280;16044;52.726;-2.108;2023-03-23T10:28:59;98395.22;;;11.51;86.92
28935;BME280;16044;52.726;-2.108;2023-03-23T10:31:40;98405.34;;;11.56;85.71
28935;BME280;16044;52.726;-2.108;2023-03-23T10:34:13;98395.91;;;11.47;84.65
28935;BME280;16044;52.726;-2.108;2023-03-23T10:39:50;98405.84;;;11.53;82.52
28935;BME280;16044;52.726;-2.108;2023-03-23T10:42:30;98407.84;;;11.58;82.23
28935;BME280;16044;52.726;-2.108;2023-03-23T10:51:12;98390.38;;;11.77;79.06
28935;BME280;16044;52.726;-2.108;2023-03-23T10:54:00;98385.53;;;11.79;78.28
28935;BME280;16044;52.726;-2.108;2023-03-23T10:56:36;98381.66;;;11.75;75.08
28935;BME280;16044;52.726;-2.108;2023-03-23T10:59:30;98386.25;;;11.86;75.43
28935;BME280;16044;52.726;-2.108;2023-03-23T11:02:02;98383.69;;;11.92;74.70
28935;BME280;16044;52.726;-2.108;2023-03-23T11:04:30;98385.34;;;12.04;75.78
28935;BME280;16044;52.726;-2.108;2023-03-23T11:07:01;98371.94;;;12.26;75.03
28935;BME280;16044;52.726;-2.108;2023-03-23T11:09:38;98379.94;;;12.45;74.99
28935;BME280;16044;52.726;-2.108;2023-03-23T11:12:17;98384.13;;;12.64;73.75
28935;BME280;16044;52.726;-2.108;2023-03-23T11:14:45;98386.41;;;12.84;72.24
28935;BME280;16044;52.726;-2.108;2023-03-23T11:17:25;98371.13;;;12.95;68.86
28935;BME280;16044;52.726;-2.108;2023-03-23T11:19:53;98374.75;;;13.01;67.94
28935;BME280;16044;52.726;-2.108;2023-03-23T11:22:31;98366.53;;;13.13;65.94
28935;BME280;16044;52.726;-2.108;2023-03-23T11:25:01;98376.53;;;13.24;67.06
28935;BME280;16044;52.726;-2.108;2023-03-23T11:27:30;98373.50;;;13.37;65.32
28935;BME280;16044;52.726;-2.108;2023-03-23T11:32:46;98375.41;;;13.71;63.68
28935;BME280;16044;52.726;-2.108;2023-03-23T11:35:25;98365.81;;;13.85;63.04
28935;BME280;16044;52.726;-2.108;2023-03-23T11:37:58;98353.41;;;13.94;61.65
28935;BME280;16044;52.726;-2.108;2023-03-23T11:40:44;98357.84;;;14.00;61.26
28935;BME280;16044;52.726;-2.108;2023-03-23T11:43:20;98369.50;;;13.96;60.25
28935;BME280;16044;52.726;-2.108;2023-03-23T11:46:04;98375.22;;;13.77;62.53
28935;BME280;16044;52.726;-2.108;2023-03-23T11:49:08;98377.56;;;13.69;65.88
28935;BME280;16044;52.726;-2.108;2023-03-23T11:55:27;98378.53;;;13.62;65.88
28935;BME280;16044;52.726;-2.108;2023-03-23T11:58:12;98378.13;;;13.54;64.62
28935;BME280;16044;52.726;-2.108;2023-03-23T12:03:21;98360.53;;;13.27;64.01
28935;BME280;16044;52.726;-2.108;2023-03-23T12:09:38;98355.75;;;13.18;64.68
28935;BME280;16044;52.726;-2.108;2023-03-23T12:15:25;98382.41;;;13.04;68.41
28935;BME280;16044;52.726;-2.108;2023-03-23T12:26:56;98396.28;;;13.02;64.66
28935;BME280;16044;52.726;-2.108;2023-03-23T12:35:36;98403.38;;;12.75;67.36
28935;BME280;16044;52.726;-2.108;2023-03-23T12:38:21;98399.19;;;12.84;69.54
28935;BME280;16044;52.726;-2.108;2023-03-23T12:41:03;98382.59;;;12.97;69.25
28935;BME280;16044;52.726;-2.108;2023-03-23T12:43:41;98378.41;;;13.06;68.52
28935;BME280;16044;52.726;-2.108;2023-03-23T12:55:23;98362.47;;;13.44;66.63
28935;BME280;16044;52.726;-2.108;2023-03-23T12:58:07;98352.31;;;13.56;66.02
28935;BME280;16044;52.726;-2.108;2023-03-23T13:00:52;98335.53;;;13.64;65.15
28935;BME280;16044;52.726;-2.108;2023-03-23T13:08:57;98361.22;;;13.69;62.79
28935;BME280;16044;52.726;-2.108;2023-03-23T13:11:36;98354.28;;;13.61;58.88
28935;BME280;16044;52.726;-2.108;2023-03-23T13:20:37;98341.53;;;13.83;56.34
28935;BME280;16044;52.726;-2.108;2023-03-23T13:23:12;98342.03;;;13.97;53.84
28935;BME280;16044;52.726;-2.108;2023-03-23T13:26:03;98336.91;;;14.01;54.67
28935;BME280;16044;52.726;-2.108;2023-03-23T13:31:31;98313.03;;;13.91;55.50
28935;BME280;16044;52.726;-2.108;2023-03-23T13:34:21;98313.38;;;13.95;55.77
28935;BME280;16044;52.726;-2.108;2023-03-23T13:36:54;98304.72;;;13.98;55.07
28935;BME280;16044;52.726;-2.108;2023-03-23T13:39:31;98310.66;;;13.95;53.99
28935;BME280;16044;52.726;-2.108;2023-03-23T13:49:58;98311.66;;;14.33;55.87
28935;BME280;16044;52.726;-2.108;2023-03-23T13:57:57;98302.84;;;14.48;54.50
28935;BME280;16044;52.726;-2.108;2023-03-23T14:00:45;98292.78;;;14.48;56.03
28935;BME280;16044;52.726;-2.108;2023-03-23T14:03:25;98300.97;;;14.48;55.39
28935;BME280;16044;52.726;-2.108;2023-03-23T14:06:01;98307.53;;;14.52;55.31
28935;BME280;16044;52.726;-2.108;2023-03-23T14:11:08;98324.47;;;14.54;56.15
28935;BME280;16044;52.726;-2.108;2023-03-23T14:16:31;98301.41;;;14.62;58.52
28935;BME280;16044;52.726;-2.108;2023-03-23T14:19:04;98293.53;;;14.66;57.21
28935;BME280;16044;52.726;-2.108;2023-03-23T14:21:53;98281.81;;;14.65;56.99
28935;BME280;16044;52.726;-2.108;2023-03-23T14:27:12;98267.38;;;14.70;57.89
28935;BME280;16044;52.726;-2.108;2023-03-23T14:29:42;98272.84;;;14.70;57.12
28935;BME280;16044;52.726;-2.108;2023-03-23T14:32:17;98264.00;;;14.57;57.39
28935;BME280;16044;52.726;-2.108;2023-03-23T14:34:47;98251.66;;;14.55;57.84
28935;BME280;16044;52.726;-2.108;2023-03-23T14:37:15;98246.16;;;14.50;58.31
28935;BME280;16044;52.726;-2.108;2023-03-23T14:39:52;98237.63;;;14.41;58.49
28935;BME280;16044;52.726;-2.108;2023-03-23T14:42:30;98243.34;;;14.39;58.80
28935;BME280;16044;52.726;-2.108;2023-03-23T14:45:00;98256.16;;;14.39;58.68
28935;BME280;16044;52.726;-2.108;2023-03-23T14:47:36;98237.47;;;14.26;57.10
28935;BME280;16044;52.726;-2.108;2023-03-23T14:50:22;98249.25;;;14.31;57.49
28935;BME280;16044;52.726;-2.108;2023-03-23T14:52:51;98245.75;;;14.36;57.61
28935;BME280;16044;52.726;-2.108;2023-03-23T14:55:21;98247.97;;;14.39;57.77
28935;BME280;16044;52.726;-2.108;2023-03-23T14:57:49;98238.88;;;14.28;58.49
28935;BME280;16044;52.726;-2.108;2023-03-23T15:02:54;98244.47;;;14.16;58.18
28935;BME280;16044;52.726;-2.108;2023-03-23T15:05:30;98233.81;;;14.15;59.11
28935;BME280;16044;52.726;-2.108;2023-03-23T15:08:05;98224.19;;;14.07;60.41
28935;BME280;16044;52.726;-2.108;2023-03-23T15:10:33;98240.69;;;13.95;61.69
28935;BME280;16044;52.726;-2.108;2023-03-23T15:13:00;98239.72;;;13.84;63.31
28935;BME280;16044;52.726;-2.108;2023-03-23T15:15:32;98236.88;;;13.74;63.90
28935;BME280;16044;52.726;-2.108;2023-03-23T15:18:02;98227.75;;;13.63;63.80
28935;BME280;16044;52.726;-2.108;2023-03-23T15:20:43;98212.47;;;13.62;64.27